Active alerts

San Francisco
  Details for San Francisco High Surf Warning
San Francisco Bay
  Details for San Francisco Bay High Surf Warning
San Francisco Peninsula Coast
  Details for San Francisco Peninsula Coast High Surf Warning

+4 others

Thunder radar more information blitzortung!


Rain radar more information rain snow radar



Nearby METAR Reports

   
KNUQ - Mountain View, CA
Updated: Dec 15 2018 7:56 pm
Few Clouds  
Few Clouds  
   Wind: Calm
Wind: Calm
Temperature: 59°F
Dew Point: 44.6°F
Humidity: 59%
Barometer: 30.07 inHg
Clouds: Few Clouds
Visibility: 10 mi
Cloud details: Few Clouds 6500 ft
KNUQ 160356Z 00000KT 10SM FEW065 15/07 A3007 RMK AO2 SLP186 T01500072 $
KSFO - San Francisco, CA
Updated: Dec 15 2018 7:56 pm
Mostly Cloudy  
Mostly Cloudy  
   Wind: SE 4.6 mph
Wind: SE 4.6 mph
Temperature: 55.4°F
Dew Point: 48.2°F
Humidity: 77%
Barometer: 30.05 inHg
Clouds: Mostly Cloudy
Visibility: 10 mi
Cloud details: Few Clouds 4000 ft,
Mostly Cloudy 7000 ft,
Mostly Cloudy 15000 ft
KSFO 160356Z 13004KT 10SM FEW040 BKN070 BKN150 13/09 A3005 RMK AO2 SLP174 T01330094
KSJC - San Jose, CA
Updated: Dec 15 2018 7:53 pm
Few Clouds  
Few Clouds  
   Wind: South 5.8 mph
Wind: South 5.8 mph
Temperature: 57.2°F
Dew Point: 46.4°F
Humidity: 67%
Barometer: 30.06 inHg
Clouds: Few Clouds
Visibility: 10 mi
Cloud details: Few Clouds 3700 ft,
Few Clouds 11000 ft
KSJC 160353Z 18005KT 10SM FEW037 FEW110 14/08 A3006 RMK AO2 SLP179 T01440078
KOAK - Oakland, CA
Updated: Dec 15 2018 7:53 pm
Mostly Cloudy  
Mostly Cloudy  
   Wind: East 5.8 mph
Wind: East 5.8 mph
Temperature: 55.4°F
Dew Point: 50°F
Humidity: 82%
Barometer: 30.06 inHg
Clouds: Mostly Cloudy
Visibility: 10 mi
Cloud details: Few Clouds 4000 ft,
Mostly Cloudy 6500 ft
KOAK 160353Z 10005KT 10SM FEW040 BKN065 13/10 A3006 RMK AO2 SLP178 T01280100
KMRY - Monterey, CA
Updated: Dec 15 2018 7:54 pm
Clear  
Clear  
   Wind: East 4.6 mph
Wind: East 4.6 mph
Temperature: 53.6°F
Dew Point: 46.4°F
Humidity: 77%
Barometer: 30.09 inHg
Clouds: Clear
Visibility: 10 mi
Cloud details: Clear ft
KMRY 160354Z 09004KT 10SM CLR 12/08 A3009 RMK AO2 SLP202 T01170078
KWYS - West Yellowstone, MT
Updated: Dec 15 2018 7:55 pm
Overcast  
Overcast  
   Wind: NE 4.6 mph
Wind: NE 4.6 mph
Temperature: 19.4°F
Wind Chill: 12.2°F
Dew Point: 17.6°F
Humidity: 93%
Barometer: 30.24 inHg
Clouds: Overcast
Visibility: 10 mi
Cloud details: Overcast 3100 ft
KWYS 160355Z AUTO 04004KT 10SM OVC031 M07/M08 A3024 RMK AO2
KDCA - Washington, DC
Updated: Dec 15 2018 7:52 pm
Light Rain, Mist, Overcast  
Light Rain, Mist, Overcast  
   Wind: North 12.7 mph
Wind: North 12.7 mph
Temperature: 51.8°F
Dew Point: 48.2°F
Humidity: 88%
Barometer: 29.92 inHg
Clouds: Overcast
Visibility: 4 mi
Cloud details: Mostly Cloudy 600 ft,
Overcast 1600 ft
KDCA 160352Z COR 01011KT 4SM -RA BR BKN006 OVC016 11/09 A2992 RMK AO2 SLP131 P0031 T01060089
KIAD - Washington Dulles, VA
Updated: Dec 15 2018 8:05 pm
Light Rain, Mist, Overcast  
Light Rain, Mist, Overcast  
   Wind: NE 12.7 mph
Wind: NE 12.7 mph
Temperature: 50°F
Wind Chill: 44.6°F
Dew Point: 48.2°F
Humidity: 94%
Barometer: 29.92 inHg
Clouds: Overcast
Visibility: 3 mi
Cloud details: Mostly Cloudy 900 ft,
Overcast 1800 ft
KIAD 160405Z 04011KT 3SM -RA BR BKN009 OVC018 10/09 A2992 RMK AO2 P0003 T01000094
KMIA - Miami Beach, FL
Updated: Dec 15 2018 7:53 pm
Mostly Cloudy  
Mostly Cloudy  
   Wind: WNW 3.5 mph
Wind: WNW 3.5 mph
Temperature: 69.8°F
Dew Point: 66.2°F
Humidity: 88%
Barometer: 30.13 inHg
Clouds: Mostly Cloudy
Visibility: 10 mi
Cloud details: Mostly Cloudy 3600 ft,
Mostly Cloudy 8000 ft
KMIA 160353Z 29003KT 10SM BKN036 BKN080 21/19 A3013 RMK AO2 SLP201 T02060194 $

Script developed by  Saratoga-weather.org Adapted for the template by  Weerstation Leuven

You find our weather info also at:

Weather Underground

Citizen Weather Observer Program (CWOP)

Equipment we use:

Weather-station
Ambient WS-1400-IP

Weather-program
Meteobridge

Weather-server
TP-LINK TL-MR3020

Ambient WS-1400-IP

Meteobridge

TP-LINK TL-MR3020